sensor_id;sensor_type;location;lat;lon;timestamp;P1;durP1;ratioP1;P2;durP2;ratioP2
57627;SDS011;43451;49.060;10.616;2022-09-09T00:03:40;7.13;;;1.80;;
57627;SDS011;43451;49.060;10.616;2022-09-09T00:11:15;2.00;;;1.40;;
57627;SDS011;43451;49.060;10.616;2022-09-09T00:13:46;2.50;;;1.38;;
57627;SDS011;43451;49.060;10.616;2022-09-09T00:24:27;7.10;;;1.77;;
57627;SDS011;43451;49.060;10.616;2022-09-09T00:27:01;3.33;;;1.60;;
57627;SDS011;43451;49.060;10.616;2022-09-09T00:29:42;1.75;;;1.52;;
57627;SDS011;43451;49.060;10.616;2022-09-09T00:32:13;2.25;;;1.48;;
57627;SDS011;43451;49.060;10.616;2022-09-09T00:34:46;1.95;;;1.30;;
57627;SDS011;43451;49.060;10.616;2022-09-09T00:37:19;3.53;;;1.50;;
57627;SDS011;43451;49.060;10.616;2022-09-09T00:39:46;2.53;;;1.20;;
57627;SDS011;43451;49.060;10.616;2022-09-09T00:50:00;1.95;;;1.40;;
57627;SDS011;43451;49.060;10.616;2022-09-09T00:57:39;2.95;;;1.58;;
57627;SDS011;43451;49.060;10.616;2022-09-09T01:00:26;3.47;;;1.55;;
57627;SDS011;43451;49.060;10.616;2022-09-09T01:06:02;3.17;;;1.73;;
57627;SDS011;43451;49.060;10.616;2022-09-09T01:14:21;2.58;;;1.60;;
57627;SDS011;43451;49.060;10.616;2022-09-09T01:16:50;3.25;;;2.10;;
57627;SDS011;43451;49.060;10.616;2022-09-09T01:19:27;4.75;;;1.77;;
57627;SDS011;43451;49.060;10.616;2022-09-09T01:27:38;3.33;;;1.95;;
57627;SDS011;43451;49.060;10.616;2022-09-09T01:30:12;2.35;;;1.75;;
57627;SDS011;43451;49.060;10.616;2022-09-09T01:32:42;4.35;;;1.80;;
57627;SDS011;43451;49.060;10.616;2022-09-09T01:35:12;4.70;;;2.13;;
57627;SDS011;43451;49.060;10.616;2022-09-09T01:37:55;3.50;;;2.08;;
57627;SDS011;43451;49.060;10.616;2022-09-09T01:40:20;2.60;;;1.92;;
57627;SDS011;43451;49.060;10.616;2022-09-09T01:42:46;5.35;;;2.03;;
57627;SDS011;43451;49.060;10.616;2022-09-09T01:45:12;5.80;;;1.90;;
57627;SDS011;43451;49.060;10.616;2022-09-09T01:47:37;2.97;;;2.15;;
57627;SDS011;43451;49.060;10.616;2022-09-09T01:50:03;4.28;;;1.98;;
57627;SDS011;43451;49.060;10.616;2022-09-09T01:52:29;3.92;;;2.10;;
57627;SDS011;43451;49.060;10.616;2022-09-09T01:54:57;4.75;;;2.03;;
57627;SDS011;43451;49.060;10.616;2022-09-09T01:57:25;3.65;;;1.92;;
57627;SDS011;43451;49.060;10.616;2022-09-09T02:00:00;3.17;;;2.00;;
57627;SDS011;43451;49.060;10.616;2022-09-09T02:10:44;3.80;;;2.20;;
57627;SDS011;43451;49.060;10.616;2022-09-09T02:13:19;3.75;;;2.00;;
57627;SDS011;43451;49.060;10.616;2022-09-09T02:18:27;3.45;;;2.10;;
57627;SDS011;43451;49.060;10.616;2022-09-09T02:20:58;4.90;;;2.30;;
57627;SDS011;43451;49.060;10.616;2022-09-09T02:23:24;3.08;;;2.15;;
57627;SDS011;43451;49.060;10.616;2022-09-09T02:25:50;5.22;;;2.25;;
57627;SDS011;43451;49.060;10.616;2022-09-09T02:28:18;3.85;;;2.30;;
57627;SDS011;43451;49.060;10.616;2022-09-09T02:30:49;3.60;;;2.28;;
57627;SDS011;43451;49.060;10.616;2022-09-09T02:33:20;3.88;;;2.30;;
57627;SDS011;43451;49.060;10.616;2022-09-09T02:35:50;2.80;;;2.10;;
57627;SDS011;43451;49.060;10.616;2022-09-09T02:38:17;3.60;;;2.13;;
57627;SDS011;43451;49.060;10.616;2022-09-09T02:40:46;5.85;;;2.40;;
57627;SDS011;43451;49.060;10.616;2022-09-09T02:43:13;3.15;;;2.28;;
57627;SDS011;43451;49.060;10.616;2022-09-09T02:45:42;3.35;;;2.20;;
57627;SDS011;43451;49.060;10.616;2022-09-09T02:48:20;2.45;;;2.22;;
57627;SDS011;43451;49.060;10.616;2022-09-09T02:51:00;3.92;;;2.47;;
57627;SDS011;43451;49.060;10.616;2022-09-09T02:56:19;4.50;;;2.60;;
57627;SDS011;43451;49.060;10.616;2022-09-09T02:58:48;3.15;;;2.05;;
57627;SDS011;43451;49.060;10.616;2022-09-09T03:01:17;4.20;;;2.50;;
57627;SDS011;43451;49.060;10.616;2022-09-09T03:03:42;2.92;;;2.30;;
57627;SDS011;43451;49.060;10.616;2022-09-09T03:06:09;2.78;;;2.40;;
57627;SDS011;43451;49.060;10.616;2022-09-09T03:08:37;4.28;;;2.33;;
57627;SDS011;43451;49.060;10.616;2022-09-09T03:11:02;3.85;;;2.45;;
57627;SDS011;43451;49.060;10.616;2022-09-09T03:13:28;4.18;;;2.40;;
57627;SDS011;43451;49.060;10.616;2022-09-09T03:15:54;4.32;;;2.58;;
57627;SDS011;43451;49.060;10.616;2022-09-09T03:18:19;12.77;;;2.70;;
57627;SDS011;43451;49.060;10.616;2022-09-09T03:20:45;2.78;;;2.58;;
57627;SDS011;43451;49.060;10.616;2022-09-09T03:23:13;3.28;;;2.75;;
57627;SDS011;43451;49.060;10.616;2022-09-09T03:25:39;6.43;;;2.80;;
57627;SDS011;43451;49.060;10.616;2022-09-09T03:28:05;4.55;;;3.10;;
57627;SDS011;43451;49.060;10.616;2022-09-09T03:30:30;3.70;;;3.00;;
57627;SDS011;43451;49.060;10.616;2022-09-09T03:32:56;7.05;;;3.60;;
57627;SDS011;43451;49.060;10.616;2022-09-09T03:35:22;9.30;;;3.70;;
57627;SDS011;43451;49.060;10.616;2022-09-09T03:37:47;7.78;;;3.70;;
57627;SDS011;43451;49.060;10.616;2022-09-09T03:40:13;7.05;;;4.00;;
57627;SDS011;43451;49.060;10.616;2022-09-09T03:42:39;8.57;;;4.60;;
57627;SDS011;43451;49.060;10.616;2022-09-09T03:45:05;7.93;;;3.97;;
57627;SDS011;43451;49.060;10.616;2022-09-09T03:47:34;7.45;;;4.15;;
57627;SDS011;43451;49.060;10.616;2022-09-09T03:49:59;5.88;;;3.50;;
57627;SDS011;43451;49.060;10.616;2022-09-09T03:52:25;6.05;;;3.00;;
57627;SDS011;43451;49.060;10.616;2022-09-09T03:54:51;5.80;;;2.67;;
57627;SDS011;43451;49.060;10.616;2022-09-09T03:57:18;4.38;;;2.70;;
57627;SDS011;43451;49.060;10.616;2022-09-09T03:59:43;5.97;;;2.72;;
57627;SDS011;43451;49.060;10.616;2022-09-09T04:02:09;4.80;;;2.72;;
57627;SDS011;43451;49.060;10.616;2022-09-09T04:04:35;5.57;;;2.80;;
57627;SDS011;43451;49.060;10.616;2022-09-09T04:07:01;5.13;;;2.60;;
57627;SDS011;43451;49.060;10.616;2022-09-09T04:09:26;5.95;;;2.70;;
57627;SDS011;43451;49.060;10.616;2022-09-09T04:11:52;2.88;;;2.22;;
57627;SDS011;43451;49.060;10.616;2022-09-09T04:14:18;4.60;;;2.33;;
57627;SDS011;43451;49.060;10.616;2022-09-09T04:16:44;5.63;;;2.45;;
57627;SDS011;43451;49.060;10.616;2022-09-09T04:19:10;3.47;;;2.60;;
57627;SDS011;43451;49.060;10.616;2022-09-09T04:21:37;5.88;;;2.67;;
57627;SDS011;43451;49.060;10.616;2022-09-09T04:24:05;5.78;;;2.90;;
57627;SDS011;43451;49.060;10.616;2022-09-09T04:26:31;5.97;;;3.10;;
57627;SDS011;43451;49.060;10.616;2022-09-09T04:28:56;4.75;;;2.80;;
57627;SDS011;43451;49.060;10.616;2022-09-09T04:31:22;3.75;;;2.58;;
57627;SDS011;43451;49.060;10.616;2022-09-09T04:33:51;4.75;;;2.67;;
57627;SDS011;43451;49.060;10.616;2022-09-09T04:36:17;5.97;;;2.80;;
57627;SDS011;43451;49.060;10.616;2022-09-09T04:38:44;5.45;;;2.83;;
57627;SDS011;43451;49.060;10.616;2022-09-09T04:41:11;5.60;;;2.10;;
57627;SDS011;43451;49.060;10.616;2022-09-09T04:43:37;3.40;;;2.13;;
57627;SDS011;43451;49.060;10.616;2022-09-09T04:46:03;3.63;;;2.20;;
57627;SDS011;43451;49.060;10.616;2022-09-09T04:48:29;4.28;;;2.33;;
57627;SDS011;43451;49.060;10.616;2022-09-09T04:53:22;5.05;;;2.80;;
57627;SDS011;43451;49.060;10.616;2022-09-09T04:55:48;5.43;;;2.70;;
57627;SDS011;43451;49.060;10.616;2022-09-09T04:58:14;4.68;;;2.90;;
57627;SDS011;43451;49.060;10.616;2022-09-09T05:00:40;4.85;;;2.50;;
57627;SDS011;43451;49.060;10.616;2022-09-09T05:03:06;3.63;;;2.53;;
57627;SDS011;43451;49.060;10.616;2022-09-09T05:05:34;4.30;;;2.38;;
57627;SDS011;43451;49.060;10.616;2022-09-09T05:08:06;3.17;;;2.63;;
57627;SDS011;43451;49.060;10.616;2022-09-09T05:10:34;3.40;;;2.60;;
57627;SDS011;43451;49.060;10.616;2022-09-09T05:13:03;3.05;;;2.30;;
57627;SDS011;43451;49.060;10.616;2022-09-09T05:15:29;4.47;;;2.60;;
57627;SDS011;43451;49.060;10.616;2022-09-09T05:17:59;6.97;;;2.70;;
57627;SDS011;43451;49.060;10.616;2022-09-09T05:20:26;3.90;;;2.60;;
57627;SDS011;43451;49.060;10.616;2022-09-09T05:22:53;3.28;;;2.88;;
57627;SDS011;43451;49.060;10.616;2022-09-09T05:25:19;5.13;;;2.90;;
57627;SDS011;43451;49.060;10.616;2022-09-09T05:27:45;4.78;;;2.47;;
57627;SDS011;43451;49.060;10.616;2022-09-09T05:30:10;3.15;;;2.50;;
57627;SDS011;43451;49.060;10.616;2022-09-09T05:32:36;4.47;;;2.63;;
57627;SDS011;43451;49.060;10.616;2022-09-09T05:35:02;3.45;;;2.10;;
57627;SDS011;43451;49.060;10.616;2022-09-09T05:37:28;4.03;;;2.53;;
57627;SDS011;43451;49.060;10.616;2022-09-09T05:39:55;3.97;;;2.15;;
57627;SDS011;43451;49.060;10.616;2022-09-09T05:42:20;5.35;;;2.50;;
57627;SDS011;43451;49.060;10.616;2022-09-09T05:44:46;4.82;;;2.33;;
57627;SDS011;43451;49.060;10.616;2022-09-09T05:47:11;4.95;;;2.28;;
57627;SDS011;43451;49.060;10.616;2022-09-09T05:49:36;4.35;;;2.28;;
57627;SDS011;43451;49.060;10.616;2022-09-09T05:52:02;3.75;;;2.15;;
57627;SDS011;43451;49.060;10.616;2022-09-09T05:54:29;4.72;;;2.30;;
57627;SDS011;43451;49.060;10.616;2022-09-09T05:56:55;5.30;;;2.08;;
57627;SDS011;43451;49.060;10.616;2022-09-09T05:59:20;3.17;;;2.00;;
57627;SDS011;43451;49.060;10.616;2022-09-09T06:01:48;4.28;;;2.10;;
57627;SDS011;43451;49.060;10.616;2022-09-09T06:04:13;4.55;;;2.10;;
57627;SDS011;43451;49.060;10.616;2022-09-09T06:06:39;4.10;;;2.45;;
57627;SDS011;43451;49.060;10.616;2022-09-09T06:09:05;3.90;;;2.40;;
57627;SDS011;43451;49.060;10.616;2022-09-09T06:11:34;4.18;;;2.10;;
57627;SDS011;43451;49.060;10.616;2022-09-09T06:14:02;5.45;;;2.15;;
57627;SDS011;43451;49.060;10.616;2022-09-09T06:16:29;5.03;;;2.10;;
57627;SDS011;43451;49.060;10.616;2022-09-09T06:18:55;4.73;;;2.20;;
57627;SDS011;43451;49.060;10.616;2022-09-09T06:21:23;3.05;;;2.13;;
57627;SDS011;43451;49.060;10.616;2022-09-09T06:26:22;2.40;;;1.83;;
57627;SDS011;43451;49.060;10.616;2022-09-09T06:28:51;4.10;;;2.10;;
57627;SDS011;43451;49.060;10.616;2022-09-09T06:31:18;5.20;;;1.90;;
57627;SDS011;43451;49.060;10.616;2022-09-09T06:33:47;3.65;;;2.03;;
57627;SDS011;43451;49.060;10.616;2022-09-09T06:36:18;7.82;;;2.25;;
57627;SDS011;43451;49.060;10.616;2022-09-09T06:38:49;5.63;;;1.88;;
57627;SDS011;43451;49.060;10.616;2022-09-09T06:41:16;3.78;;;1.83;;
57627;SDS011;43451;49.060;10.616;2022-09-09T06:43:43;3.65;;;1.88;;
57627;SDS011;43451;49.060;10.616;2022-09-09T06:48:40;6.60;;;1.92;;
57627;SDS011;43451;49.060;10.616;2022-09-09T06:53:36;3.88;;;1.60;;
57627;SDS011;43451;49.060;10.616;2022-09-09T06:56:26;2.72;;;2.10;;
57627;SDS011;43451;49.060;10.616;2022-09-09T06:58:54;2.92;;;1.70;;
57627;SDS011;43451;49.060;10.616;2022-09-09T07:01:25;4.05;;;1.70;;
57627;SDS011;43451;49.060;10.616;2022-09-09T07:03:53;3.92;;;1.70;;
57627;SDS011;43451;49.060;10.616;2022-09-09T07:06:21;3.08;;;1.70;;
57627;SDS011;43451;49.060;10.616;2022-09-09T07:08:52;4.25;;;1.80;;
57627;SDS011;43451;49.060;10.616;2022-09-09T07:11:19;4.35;;;1.65;;
57627;SDS011;43451;49.060;10.616;2022-09-09T07:13:46;4.10;;;1.70;;
57627;SDS011;43451;49.060;10.616;2022-09-09T07:16:16;3.80;;;1.58;;
57627;SDS011;43451;49.060;10.616;2022-09-09T07:18:43;3.45;;;1.52;;
57627;SDS011;43451;49.060;10.616;2022-09-09T07:21:09;4.82;;;1.60;;
57627;SDS011;43451;49.060;10.616;2022-09-09T07:23:39;5.35;;;1.60;;
57627;SDS011;43451;49.060;10.616;2022-09-09T07:26:13;4.68;;;1.58;;
57627;SDS011;43451;49.060;10.616;2022-09-09T07:28:40;3.38;;;1.60;;
57627;SDS011;43451;49.060;10.616;2022-09-09T07:31:07;3.10;;;2.00;;
57627;SDS011;43451;49.060;10.616;2022-09-09T07:33:38;3.97;;;1.45;;
57627;SDS011;43451;49.060;10.616;2022-09-09T07:38:37;4.90;;;1.70;;
57627;SDS011;43451;49.060;10.616;2022-09-09T07:41:05;3.63;;;1.55;;
57627;SDS011;43451;49.060;10.616;2022-09-09T07:43:31;4.90;;;1.60;;
57627;SDS011;43451;49.060;10.616;2022-09-09T07:45:58;3.08;;;1.50;;
57627;SDS011;43451;49.060;10.616;2022-09-09T07:48:24;2.03;;;1.50;;
57627;SDS011;43451;49.060;10.616;2022-09-09T07:50:49;2.58;;;1.50;;
57627;SDS011;43451;49.060;10.616;2022-09-09T07:53:16;3.00;;;1.60;;
57627;SDS011;43451;49.060;10.616;2022-09-09T07:55:41;2.70;;;1.40;;
57627;SDS011;43451;49.060;10.616;2022-09-09T07:58:06;4.05;;;1.50;;
57627;SDS011;43451;49.060;10.616;2022-09-09T08:00:32;4.20;;;1.40;;
57627;SDS011;43451;49.060;10.616;2022-09-09T08:02:58;3.97;;;1.50;;
57627;SDS011;43451;49.060;10.616;2022-09-09T08:05:25;4.40;;;1.23;;
57627;SDS011;43451;49.060;10.616;2022-09-09T08:07:51;3.63;;;1.60;;
57627;SDS011;43451;49.060;10.616;2022-09-09T08:10:16;3.22;;;1.30;;
57627;SDS011;43451;49.060;10.616;2022-09-09T08:12:43;5.30;;;1.23;;
57627;SDS011;43451;49.060;10.616;2022-09-09T08:15:08;4.35;;;1.40;;
57627;SDS011;43451;49.060;10.616;2022-09-09T08:17:34;4.75;;;1.40;;
57627;SDS011;43451;49.060;10.616;2022-09-09T08:19:59;3.00;;;1.30;;
57627;SDS011;43451;49.060;10.616;2022-09-09T08:22:29;3.38;;;1.42;;
57627;SDS011;43451;49.060;10.616;2022-09-09T08:24:55;4.25;;;1.50;;
57627;SDS011;43451;49.060;10.616;2022-09-09T08:27:21;2.92;;;1.50;;
57627;SDS011;43451;49.060;10.616;2022-09-09T08:29:47;3.70;;;1.40;;
57627;SDS011;43451;49.060;10.616;2022-09-09T08:32:13;3.20;;;1.40;;
57627;SDS011;43451;49.060;10.616;2022-09-09T08:34:38;4.35;;;1.50;;
57627;SDS011;43451;49.060;10.616;2022-09-09T08:37:05;4.72;;;1.45;;
57627;SDS011;43451;49.060;10.616;2022-09-09T08:39:30;3.30;;;1.40;;
57627;SDS011;43451;49.060;10.616;2022-09-09T08:50:31;2.33;;;1.08;;
57627;SDS011;43451;49.060;10.616;2022-09-09T08:55:50;2.63;;;1.20;;
57627;SDS011;43451;49.060;10.616;2022-09-09T08:58:25;3.67;;;1.40;;
57627;SDS011;43451;49.060;10.616;2022-09-09T09:11:38;3.85;;;1.63;;
57627;SDS011;43451;49.060;10.616;2022-09-09T09:16:34;1.95;;;0.80;;
57627;SDS011;43451;49.060;10.616;2022-09-09T09:19:03;4.35;;;0.90;;
57627;SDS011;43451;49.060;10.616;2022-09-09T09:21:43;4.15;;;0.98;;
57627;SDS011;43451;49.060;10.616;2022-09-09T09:24:20;2.78;;;0.90;;
57627;SDS011;43451;49.060;10.616;2022-09-09T09:26:48;5.25;;;1.00;;
57627;SDS011;43451;49.060;10.616;2022-09-09T09:29:17;3.20;;;0.90;;
57627;SDS011;43451;49.060;10.616;2022-09-09T09:31:55;3.53;;;0.90;;
57627;SDS011;43451;49.060;10.616;2022-09-09T09:34:23;3.22;;;0.88;;
57627;SDS011;43451;49.060;10.616;2022-09-09T09:36:56;4.07;;;0.90;;
57627;SDS011;43451;49.060;10.616;2022-09-09T09:39:24;3.38;;;0.80;;
57627;SDS011;43451;49.060;10.616;2022-09-09T09:41:52;8.77;;;1.20;;
57627;SDS011;43451;49.060;10.616;2022-09-09T09:44:29;1.98;;;0.80;;
57627;SDS011;43451;49.060;10.616;2022-09-09T09:49:31;3.15;;;0.90;;
57627;SDS011;43451;49.060;10.616;2022-09-09T09:52:01;2.15;;;0.80;;
57627;SDS011;43451;49.060;10.616;2022-09-09T09:54:31;4.03;;;0.85;;
57627;SDS011;43451;49.060;10.616;2022-09-09T10:00:39;3.40;;;0.73;;
57627;SDS011;43451;49.060;10.616;2022-09-09T10:02:47;2.63;;;0.90;;
57627;SDS011;43451;49.060;10.616;2022-09-09T10:05:20;1.92;;;0.60;;
57627;SDS011;43451;49.060;10.616;2022-09-09T10:08:33;3.28;;;0.80;;
57627;SDS011;43451;49.060;10.616;2022-09-09T10:10:37;3.22;;;0.90;;
57627;SDS011;43451;49.060;10.616;2022-09-09T10:13:39;2.50;;;0.80;;
57627;SDS011;43451;49.060;10.616;2022-09-09T10:19:05;4.93;;;0.77;;
57627;SDS011;43451;49.060;10.616;2022-09-09T10:32:46;2.53;;;0.80;;
57627;SDS011;43451;49.060;10.616;2022-09-09T10:56:30;3.05;;;0.70;;
57627;SDS011;43451;49.060;10.616;2022-09-09T10:58:59;2.40;;;0.70;;
57627;SDS011;43451;49.060;10.616;2022-09-09T11:01:48;2.50;;;0.70;;
57627;SDS011;43451;49.060;10.616;2022-09-09T11:07:00;2.90;;;0.80;;
57627;SDS011;43451;49.060;10.616;2022-09-09T11:09:32;2.00;;;0.75;;
57627;SDS011;43451;49.060;10.616;2022-09-09T11:12:21;5.93;;;0.82;;
57627;SDS011;43451;49.060;10.616;2022-09-09T11:15:23;6.72;;;0.80;;
57627;SDS011;43451;49.060;10.616;2022-09-09T11:17:56;1.42;;;0.68;;
57627;SDS011;43451;49.060;10.616;2022-09-09T11:20:25;5.10;;;1.10;;
57627;SDS011;43451;49.060;10.616;2022-09-09T11:23:04;2.10;;;0.73;;
57627;SDS011;43451;49.060;10.616;2022-09-09T11:25:41;6.60;;;1.08;;
57627;SDS011;43451;49.060;10.616;2022-09-09T11:28:21;6.35;;;0.80;;
57627;SDS011;43451;49.060;10.616;2022-09-09T11:42:26;2.30;;;0.80;;
57627;SDS011;43451;49.060;10.616;2022-09-09T11:44:51;2.20;;;0.88;;
57627;SDS011;43451;49.060;10.616;2022-09-09T11:47:23;3.13;;;0.82;;
57627;SDS011;43451;49.060;10.616;2022-09-09T11:49:54;2.60;;;0.90;;
57627;SDS011;43451;49.060;10.616;2022-09-09T11:52:41;2.33;;;0.80;;
57627;SDS011;43451;49.060;10.616;2022-09-09T11:55:30;7.07;;;0.85;;
57627;SDS011;43451;49.060;10.616;2022-09-09T11:58:04;3.38;;;1.00;;
57627;SDS011;43451;49.060;10.616;2022-09-09T12:00:41;2.40;;;1.00;;
57627;SDS011;43451;49.060;10.616;2022-09-09T12:06:17;2.80;;;0.82;;
57627;SDS011;43451;49.060;10.616;2022-09-09T12:08:54;2.35;;;0.90;;
57627;SDS011;43451;49.060;10.616;2022-09-09T12:11:24;3.03;;;0.90;;
57627;SDS011;43451;49.060;10.616;2022-09-09T12:13:57;5.20;;;0.85;;
57627;SDS011;43451;49.060;10.616;2022-09-09T12:16:36;5.60;;;0.90;;
57627;SDS011;43451;49.060;10.616;2022-09-09T12:36:02;1.70;;;0.70;;
57627;SDS011;43451;49.060;10.616;2022-09-09T12:38:35;4.93;;;0.90;;
57627;SDS011;43451;49.060;10.616;2022-09-09T12:41:02;2.95;;;0.70;;
57627;SDS011;43451;49.060;10.616;2022-09-09T12:43:28;1.75;;;0.65;;
57627;SDS011;43451;49.060;10.616;2022-09-09T12:45:55;3.17;;;0.90;;
57627;SDS011;43451;49.060;10.616;2022-09-09T12:48:34;1.48;;;0.50;;
57627;SDS011;43451;49.060;10.616;2022-09-09T12:51:05;4.38;;;0.80;;
57627;SDS011;43451;49.060;10.616;2022-09-09T12:53:40;2.40;;;0.73;;
57627;SDS011;43451;49.060;10.616;2022-09-09T12:58:35;1.48;;;0.52;;
57627;SDS011;43451;49.060;10.616;2022-09-09T13:01:02;3.17;;;0.70;;
57627;SDS011;43451;49.060;10.616;2022-09-09T13:03:30;6.13;;;0.80;;
57627;SDS011;43451;49.060;10.616;2022-09-09T13:05:58;6.15;;;0.80;;
57627;SDS011;43451;49.060;10.616;2022-09-09T13:08:35;1.70;;;0.70;;
57627;SDS011;43451;49.060;10.616;2022-09-09T13:11:01;3.97;;;0.80;;
57627;SDS011;43451;49.060;10.616;2022-09-09T13:13:41;3.13;;;0.80;;
57627;SDS011;43451;49.060;10.616;2022-09-09T13:16:21;4.88;;;0.80;;
57627;SDS011;43451;49.060;10.616;2022-09-09T13:18:50;4.28;;;0.70;;
57627;SDS011;43451;49.060;10.616;2022-09-09T13:21:16;2.50;;;0.60;;
57627;SDS011;43451;49.060;10.616;2022-09-09T13:23:42;1.30;;;0.50;;
57627;SDS011;43451;49.060;10.616;2022-09-09T13:26:22;2.83;;;0.63;;
57627;SDS011;43451;49.060;10.616;2022-09-09T13:28:49;1.88;;;0.60;;
57627;SDS011;43451;49.060;10.616;2022-09-09T13:31:32;1.17;;;0.50;;
57627;SDS011;43451;49.060;10.616;2022-09-09T13:34:10;3.10;;;0.50;;
57627;SDS011;43451;49.060;10.616;2022-09-09T13:36:39;1.55;;;0.55;;
57627;SDS011;43451;49.060;10.616;2022-09-09T13:39:13;1.30;;;0.50;;
57627;SDS011;43451;49.060;10.616;2022-09-09T13:41:43;2.78;;;0.55;;
57627;SDS011;43451;49.060;10.616;2022-09-09T13:44:28;4.20;;;0.60;;
57627;SDS011;43451;49.060;10.616;2022-09-09T13:47:06;2.10;;;0.50;;
57627;SDS011;43451;49.060;10.616;2022-09-09T13:49:46;2.30;;;0.50;;
57627;SDS011;43451;49.060;10.616;2022-09-09T13:52:13;3.45;;;0.40;;
57627;SDS011;43451;49.060;10.616;2022-09-09T13:54:40;1.08;;;0.30;;
57627;SDS011;43451;49.060;10.616;2022-09-09T13:57:17;0.98;;;0.43;;
57627;SDS011;43451;49.060;10.616;2022-09-09T13:59:47;1.02;;;0.32;;
57627;SDS011;43451;49.060;10.616;2022-09-09T14:02:13;0.55;;;0.40;;
57627;SDS011;43451;49.060;10.616;2022-09-09T14:04:41;1.38;;;0.43;;
57627;SDS011;43451;49.060;10.616;2022-09-09T14:07:09;0.73;;;0.40;;
57627;SDS011;43451;49.060;10.616;2022-09-09T14:09:37;1.00;;;0.35;;
57627;SDS011;43451;49.060;10.616;2022-09-09T14:12:03;0.98;;;0.30;;
57627;SDS011;43451;49.060;10.616;2022-09-09T14:14:29;1.13;;;0.47;;
57627;SDS011;43451;49.060;10.616;2022-09-09T14:16:55;1.55;;;0.50;;
57627;SDS011;43451;49.060;10.616;2022-09-09T14:19:20;1.13;;;0.47;;
57627;SDS011;43451;49.060;10.616;2022-09-09T14:21:45;2.17;;;0.63;;
57627;SDS011;43451;49.060;10.616;2022-09-09T14:24:11;2.33;;;0.50;;
57627;SDS011;43451;49.060;10.616;2022-09-09T14:26:37;2.25;;;0.40;;
57627;SDS011;43451;49.060;10.616;2022-09-09T14:29:03;1.95;;;0.50;;
57627;SDS011;43451;49.060;10.616;2022-09-09T14:31:28;0.95;;;0.35;;
57627;SDS011;43451;49.060;10.616;2022-09-09T14:33:54;0.68;;;0.40;;
57627;SDS011;43451;49.060;10.616;2022-09-09T14:36:19;1.65;;;0.50;;
57627;SDS011;43451;49.060;10.616;2022-09-09T14:38:45;1.65;;;0.55;;
57627;SDS011;43451;49.060;10.616;2022-09-09T14:41:15;2.83;;;0.57;;
57627;SDS011;43451;49.060;10.616;2022-09-09T14:43:42;0.90;;;0.40;;
57627;SDS011;43451;49.060;10.616;2022-09-09T14:46:09;1.83;;;0.40;;
57627;SDS011;43451;49.060;10.616;2022-09-09T14:48:36;0.88;;;0.30;;
57627;SDS011;43451;49.060;10.616;2022-09-09T14:51:05;1.38;;;0.55;;
57627;SDS011;43451;49.060;10.616;2022-09-09T14:53:31;1.73;;;0.50;;
57627;SDS011;43451;49.060;10.616;2022-09-09T14:56:04;0.63;;;0.40;;
57627;SDS011;43451;49.060;10.616;2022-09-09T14:58:31;1.98;;;0.32;;
57627;SDS011;43451;49.060;10.616;2022-09-09T15:01:01;1.52;;;0.40;;
57627;SDS011;43451;49.060;10.616;2022-09-09T15:03:29;2.65;;;0.47;;
57627;SDS011;43451;49.060;10.616;2022-09-09T15:05:54;0.93;;;0.40;;
57627;SDS011;43451;49.060;10.616;2022-09-09T15:08:19;0.85;;;0.40;;
57627;SDS011;43451;49.060;10.616;2022-09-09T15:10:45;1.60;;;0.50;;
57627;SDS011;43451;49.060;10.616;2022-09-09T15:13:12;1.17;;;0.40;;
57627;SDS011;43451;49.060;10.616;2022-09-09T15:15:41;3.17;;;0.40;;
57627;SDS011;43451;49.060;10.616;2022-09-09T15:18:07;1.27;;;0.30;;
57627;SDS011;43451;49.060;10.616;2022-09-09T15:20:32;0.63;;;0.32;;
57627;SDS011;43451;49.060;10.616;2022-09-09T15:22:58;2.08;;;0.40;;
57627;SDS011;43451;49.060;10.616;2022-09-09T15:25:24;0.82;;;0.28;;
57627;SDS011;43451;49.060;10.616;2022-09-09T15:27:50;1.60;;;0.50;;
57627;SDS011;43451;49.060;10.616;2022-09-09T15:30:15;0.77;;;0.40;;
57627;SDS011;43451;49.060;10.616;2022-09-09T15:32:41;2.08;;;0.40;;
57627;SDS011;43451;49.060;10.616;2022-09-09T15:35:06;1.35;;;0.40;;
57627;SDS011;43451;49.060;10.616;2022-09-09T15:37:32;2.72;;;0.52;;
57627;SDS011;43451;49.060;10.616;2022-09-09T15:39:57;1.52;;;0.40;;
57627;SDS011;43451;49.060;10.616;2022-09-09T15:42:24;1.20;;;0.43;;
57627;SDS011;43451;49.060;10.616;2022-09-09T15:44:50;2.33;;;0.50;;
57627;SDS011;43451;49.060;10.616;2022-09-09T15:47:15;2.53;;;0.50;;
57627;SDS011;43451;49.060;10.616;2022-09-09T15:49:41;1.77;;;0.43;;
57627;SDS011;43451;49.060;10.616;2022-09-09T15:52:08;1.17;;;0.43;;
57627;SDS011;43451;49.060;10.616;2022-09-09T15:54:36;2.85;;;0.50;;
57627;SDS011;43451;49.060;10.616;2022-09-09T15:57:04;0.65;;;0.40;;
57627;SDS011;43451;49.060;10.616;2022-09-09T15:59:31;1.98;;;0.50;;
57627;SDS011;43451;49.060;10.616;2022-09-09T16:01:57;1.70;;;0.32;;
57627;SDS011;43451;49.060;10.616;2022-09-09T16:06:51;2.28;;;0.40;;
57627;SDS011;43451;49.060;10.616;2022-09-09T16:09:17;1.33;;;0.50;;
57627;SDS011;43451;49.060;10.616;2022-09-09T16:11:42;3.17;;;0.73;;
57627;SDS011;43451;49.060;10.616;2022-09-09T16:14:08;1.10;;;0.30;;
57627;SDS011;43451;49.060;10.616;2022-09-09T16:16:34;2.30;;;0.50;;
57627;SDS011;43451;49.060;10.616;2022-09-09T16:19:02;1.25;;;0.55;;
57627;SDS011;43451;49.060;10.616;2022-09-09T16:21:37;3.15;;;0.85;;
57627;SDS011;43451;49.060;10.616;2022-09-09T16:24:14;1.83;;;0.50;;
57627;SDS011;43451;49.060;10.616;2022-09-09T16:26:43;2.67;;;0.55;;
57627;SDS011;43451;49.060;10.616;2022-09-09T16:29:11;3.25;;;0.85;;
57627;SDS011;43451;49.060;10.616;2022-09-09T16:31:38;1.65;;;0.50;;
57627;SDS011;43451;49.060;10.616;2022-09-09T16:34:05;1.70;;;0.50;;
57627;SDS011;43451;49.060;10.616;2022-09-09T16:36:31;3.17;;;0.50;;
57627;SDS011;43451;49.060;10.616;2022-09-09T16:39:03;2.08;;;0.57;;
57627;SDS011;43451;49.060;10.616;2022-09-09T16:41:31;4.00;;;1.52;;
57627;SDS011;43451;49.060;10.616;2022-09-09T16:43:58;1.70;;;0.60;;
57627;SDS011;43451;49.060;10.616;2022-09-09T16:46:25;2.47;;;0.40;;
57627;SDS011;43451;49.060;10.616;2022-09-09T16:51:20;2.85;;;0.50;;
57627;SDS011;43451;49.060;10.616;2022-09-09T16:53:51;2.58;;;0.50;;
57627;SDS011;43451;49.060;10.616;2022-09-09T16:56:18;1.83;;;0.57;;
57627;SDS011;43451;49.060;10.616;2022-09-09T16:58:52;2.17;;;0.40;;
57627;SDS011;43451;49.060;10.616;2022-09-09T17:01:20;1.27;;;0.50;;
57627;SDS011;43451;49.060;10.616;2022-09-09T17:03:47;1.00;;;0.40;;
57627;SDS011;43451;49.060;10.616;2022-09-09T17:06:13;0.85;;;0.50;;
57627;SDS011;43451;49.060;10.616;2022-09-09T17:08:40;4.28;;;0.70;;
57627;SDS011;43451;49.060;10.616;2022-09-09T17:11:13;1.98;;;0.57;;
57627;SDS011;43451;49.060;10.616;2022-09-09T17:13:41;3.70;;;0.52;;
57627;SDS011;43451;49.060;10.616;2022-09-09T17:16:07;2.25;;;0.55;;
57627;SDS011;43451;49.060;10.616;2022-09-09T17:18:33;2.22;;;0.50;;
57627;SDS011;43451;49.060;10.616;2022-09-09T17:21:05;2.67;;;0.70;;
57627;SDS011;43451;49.060;10.616;2022-09-09T17:23:34;5.68;;;0.77;;
57627;SDS011;43451;49.060;10.616;2022-09-09T17:26:03;3.05;;;0.63;;
57627;SDS011;43451;49.060;10.616;2022-09-09T17:28:30;3.80;;;0.82;;
57627;SDS011;43451;49.060;10.616;2022-09-09T17:30:57;1.73;;;0.50;;
57627;SDS011;43451;49.060;10.616;2022-09-09T17:33:25;2.83;;;0.68;;
57627;SDS011;43451;49.060;10.616;2022-09-09T17:35:53;6.32;;;0.70;;
57627;SDS011;43451;49.060;10.616;2022-09-09T17:38:19;3.85;;;0.60;;
57627;SDS011;43451;49.060;10.616;2022-09-09T17:40:45;3.63;;;0.50;;